マドリード/バラハス の空港の天気 - METARとTAF

マドリード・バラハス国際空港 ( LEMD / MAD ) - スペイン マドリード
飛行場実況気象(Metar)
観測時間11/15 18:00 CET (11/15 17:00 UTC)
風向・風速南 2m/s
視程10km以上
天気現象
少しの雲 雲底高度 1370m
全天の8割程度の雲 雲底高度 1980m
気温14℃
湿度88%
気圧1017hPa
METARLEMD 151700Z 18003KT 120V220 9999 FEW045 BKN065 14/12 Q1017 NOSIG
過去の天気等 Google飛行場航空写真 Wunderground天気予報

過去48時間のMETAR

飛行場予報(TAF)
発表時間: 11/15 16:42 CET (11/15 15:42 UTC)
予報対象時間: 15日16時 CET ~ 16日19時 CET
風向・風速北東 4m/s
視程10km以上
全天の8割程度の雲 雲底高度 1520m
16日13時 CET ~ 16日19時 CET に 確率 30% で一時的に
風向・風速南 5m/s
15日16時 CET ~ 15日19時 CET に 確率 30% で一時的に
風向・風速南南東 7m/s
天気現象しゅう雨
全天の4割程度の塔状積雲 雲底高度 910m
TAF AMD LEMD 151542Z 1515/1618 04007KT 9999 BKN050 TX18/1614Z TN09/1607Z
PROB30 TEMPO 1612/1618 17010KT
PROB30 TEMPO 1515/1518 16014KT SHRA SCT030TCU